Time;durP1;ratioP1;P1;durP2;ratioP2;P2;SDS_P1;SDS_P2;PMS_P1;PMS_P2;Temp;Humidity;BMP_temperature;BMP_pressure;BME280_temperature;BME280_humidity;BME280_pressure;Samples;Min_cycle;Max_cycle;Signal;HPM_P1;HPM_P2
2024/01/15 00:04:36;;;;;;;36.80;17.20;;;;;;;2.42;43.07;98730.97;10530203;28;20252;-70
2024/01/15 00:09:39;;;;;;;28.73;15.40;;;;;;;0.41;44.99;99060.28;10520492;28;20236;-70
2024/01/15 00:14:42;;;;;;;27.53;15.17;;;;;;;0.10;44.63;99147.16;10534501;28;20549;-69
2024/01/15 00:19:43;;;;;;;31.13;15.20;;;;;;;0.13;45.72;98994.28;10530027;28;20266;-69
2024/01/15 00:24:45;;;;;;;26.90;15.50;;;;;;;-0.54;46.06;99129.78;10514853;28;20269;-71
2024/01/15 00:29:48;;;;;;;34.00;18.27;;;;;;;0.11;45.51;98984.88;10479605;28;20762;-70
2024/01/15 00:34:50;;;;;;;33.07;16.73;;;;;;;0.94;45.09;98785.06;10501788;28;20366;-70
2024/01/15 00:39:52;;;;;;;31.77;17.47;;;;;;;0.99;44.89;98782.81;10520903;28;20917;-70
2024/01/15 00:44:54;;;;;;;30.20;15.70;;;;;;;0.12;45.30;98941.78;10511284;28;20241;-71
2024/01/15 00:49:56;;;;;;;28.37;12.60;;;;;;;-0.15;45.70;98955.59;10480568;28;20662;-71
2024/01/15 00:54:57;;;;;;;22.50;14.23;;;;;;;-1.03;46.53;99116.25;10461280;28;20230;-71
2024/01/15 00:59:59;;;;;;;20.40;11.77;;;;;;;-0.67;46.66;98993.31;10470043;28;20245;-70
2024/01/15 01:05:05;;;;;;;29.27;15.30;;;;;;;0.27;45.09;98814.09;10481632;28;20252;-71
2024/01/15 01:10:07;;;;;;;20.57;11.67;;;;;;;-1.00;46.42;99060.84;10474485;28;20331;-71
2024/01/15 01:15:08;;;;;;;30.10;17.17;;;;;;;-0.50;46.76;98896.44;10474923;28;20599;-70
2024/01/15 01:20:10;;;;;;;30.30;16.60;;;;;;;1.11;44.53;98656.13;10478737;28;20239;-71
2024/01/15 01:25:15;;;;;;;34.40;14.10;;;;;;;-0.30;45.16;99034.88;10475021;28;20259;-69
2024/01/15 01:30:16;;;;;;;31.20;14.40;;;;;;;0.52;45.41;98753.09;10478400;28;20237;-70
2024/01/15 01:35:18;;;;;;;24.07;13.17;;;;;;;-0.11;45.75;98899.97;10477792;28;20268;-71
2024/01/15 01:40:20;;;;;;;17.90;11.43;;;;;;;-1.05;46.50;99118.19;10478936;28;20258;-67
2024/01/15 01:45:22;;;;;;;29.73;13.73;;;;;;;0.66;44.93;98744.69;10479155;28;20238;-71
2024/01/15 01:50:23;;;;;;;20.30;11.10;;;;;;;0.28;46.25;98765.75;10474875;28;20231;-71
2024/01/15 01:55:27;;;;;;;28.77;14.50;;;;;;;0.28;45.37;98842.09;10479371;28;20231;-68
2024/01/15 02:00:30;;;;;;;25.90;14.13;;;;;;;-0.29;45.74;98996.25;10470534;28;20245;-69
2024/01/15 02:05:35;;;;;;;29.77;15.17;;;;;;;0.20;45.52;98876.16;10469524;28;20298;-69
2024/01/15 02:10:36;;;;;;;24.17;14.27;;;;;;;-0.41;46.29;98960.53;10470145;28;20240;-69
2024/01/15 02:15:38;;;;;;;22.87;13.87;;;;;;;-0.79;46.41;99062.66;10477344;28;20321;-69
2024/01/15 02:20:40;;;;;;;23.47;12.37;;;;;;;0.42;45.37;98822.38;10475723;28;20239;-69
2024/01/15 02:25:44;;;;;;;19.53;11.33;;;;;;;0.00;45.29;98951.63;10479195;28;20314;-69
2024/01/15 02:30:46;;;;;;;18.60;10.23;;;;;;;0.21;45.49;98880.47;10478901;28;20245;-68
2024/01/15 02:35:50;;;;;;;19.27;11.73;;;;;;;0.42;45.58;98811.03;10475973;28;20242;-69
2024/01/15 02:40:51;;;;;;;19.70;10.10;;;;;;;-0.11;45.74;98926.28;10470664;28;20247;-71
2024/01/15 02:45:53;;;;;;;20.30;11.60;;;;;;;0.63;44.87;98839.78;10484801;28;20330;-69
2024/01/15 02:50:55;;;;;;;17.33;9.73;;;;;;;-0.05;45.80;98911.72;10473431;28;20619;-68
2024/01/15 02:55:56;;;;;;;17.80;10.97;;;;;;;-0.29;46.61;98933.16;10476883;28;20230;-69
2024/01/15 03:00:58;;;;;;;21.10;12.60;;;;;;;1.27;45.21;98624.66;10497676;28;20773;-71
2024/01/15 03:06:01;;;;;;;21.47;10.47;;;;;;;1.20;44.77;98690.34;10514804;28;20315;-71
2024/01/15 03:11:03;;;;;;;20.47;11.67;;;;;;;0.61;45.55;98795.19;10508335;28;20231;-71
2024/01/15 03:16:05;;;;;;;12.87;8.53;;;;;;;-0.32;46.58;98967.59;10515616;28;20258;-72
2024/01/15 03:21:07;;;;;;;19.87;11.07;;;;;;;0.08;46.11;98925.47;10494729;28;20237;-70
2024/01/15 03:26:08;;;;;;;15.93;9.70;;;;;;;0.29;45.77;98901.66;10517343;28;20238;-69
2024/01/15 03:31:10;;;;;;;22.70;12.10;;;;;;;0.82;45.24;98767.78;10515359;28;20241;-70
2024/01/15 03:36:12;;;;;;;14.20;10.13;;;;;;;1.06;44.83;98781.25;10517767;28;20226;-70
2024/01/15 03:41:13;;;;;;;19.63;11.87;;;;;;;1.39;45.34;98678.00;10510972;28;20234;-70
2024/01/15 03:46:15;;;;;;;21.13;12.13;;;;;;;0.66;45.50;98836.88;10504419;28;20361;-70
2024/01/15 03:51:18;;;;;;;20.20;12.67;;;;;;;1.00;45.00;98841.59;10521977;28;20328;-70
2024/01/15 03:56:19;;;;;;;21.17;12.37;;;;;;;1.02;44.95;98806.22;10510121;28;20311;-71
2024/01/15 04:01:21;;;;;;;19.57;11.60;;;;;;;1.69;44.50;98660.94;10516114;28;20681;-70
2024/01/15 04:06:23;;;;;;;24.37;13.10;;;;;;;1.37;45.08;98741.41;10525239;28;20234;-70
2024/01/15 04:11:24;;;;;;;21.83;13.07;;;;;;;2.53;43.56;98587.25;10516283;28;20230;-70
2024/01/15 04:16:26;;;;;;;19.43;11.83;;;;;;;0.87;45.60;98834.03;10521505;28;20798;-71
2024/01/15 04:21:28;;;;;;;18.50;10.63;;;;;;;0.77;45.46;98891.19;10714103;22;20668;-35
2024/01/15 04:26:29;;;;;;;20.30;11.10;;;;;;;1.74;44.74;98650.75;10439520;28;20242;-34
2024/01/15 04:31:31;;;;;;;21.03;12.83;;;;;;;1.87;44.70;98638.94;10457921;28;20314;-35
2024/01/15 04:36:39;;;;;;;21.53;12.13;;;;;;;0.75;46.23;98822.00;10489479;22;20235;-35
2024/01/15 04:41:41;;;;;;;19.97;11.70;;;;;;;1.28;45.34;98767.81;10474293;28;20472;-36
2024/01/15 04:46:43;;;;;;;21.13;11.77;;;;;;;1.10;45.66;98794.13;10446501;28;20228;-35
2024/01/15 04:51:45;;;;;;;20.13;13.40;;;;;;;3.21;42.88;98646.16;10446613;28;20327;-35
2024/01/15 04:56:47;;;;;;;21.77;12.53;;;;;;;1.51;44.65;98924.63;10448551;28;20236;-37
2024/01/15 05:01:48;;;;;;;20.23;11.43;;;;;;;2.52;43.29;98773.94;10453443;28;20742;-37
2024/01/15 05:06:50;;;;;;;19.80;11.33;;;;;;;1.61;44.58;98912.22;10448937;28;20318;-37
2024/01/15 05:11:52;;;;;;;19.90;11.93;;;;;;;2.18;43.85;98821.41;10450879;28;20774;-36
2024/01/15 05:16:54;;;;;;;21.33;12.93;;;;;;;0.91;45.17;99004.00;10443901;28;20237;-35
2024/01/15 05:21:55;;;;;;;19.83;11.17;;;;;;;2.22;43.82;98766.50;10445791;28;20228;-36
2024/01/15 05:26:57;;;;;;;18.70;12.47;;;;;;;2.64;43.48;98710.28;10444915;28;20611;-37
2024/01/15 05:31:59;;;;;;;20.27;11.70;;;;;;;1.23;45.29;98927.22;10448995;28;20231;-37
2024/01/15 05:37:03;;;;;;;20.27;12.13;;;;;;;0.90;46.53;98846.94;10460341;28;20231;-36
2024/01/15 05:42:05;;;;;;;17.23;10.97;;;;;;;0.79;46.72;98873.44;10444588;28;20267;-35
2024/01/15 05:47:07;;;;;;;17.87;10.93;;;;;;;1.62;44.54;98857.66;10441828;28;20617;-38
2024/01/15 05:52:09;;;;;;;17.13;10.47;;;;;;;1.28;45.93;98779.19;10453156;28;20238;-37
2024/01/15 05:57:11;;;;;;;19.17;11.20;;;;;;;2.43;44.32;98578.63;10446431;28;20245;-39
2024/01/15 06:02:13;;;;;;;13.87;9.43;;;;;;;0.60;46.15;98954.13;10457305;28;20602;-36
2024/01/15 06:07:14;;;;;;;17.93;10.93;;;;;;;1.61;45.25;98724.16;10449186;28;20225;-35
2024/01/15 06:12:16;;;;;;;21.73;13.40;;;;;;;2.14;44.73;98677.53;10452779;28;20286;-36
2024/01/15 06:17:18;;;;;;;25.33;13.47;;;;;;;2.03;44.51;98702.38;10447273;28;20228;-36
2024/01/15 06:22:20;;;;;;;22.10;12.47;;;;;;;1.52;44.53;98859.53;10447557;28;20239;-38
2024/01/15 06:27:22;;;;;;;22.97;13.30;;;;;;;1.09;46.19;98830.19;10460155;28;20234;-35
2024/01/15 06:32:23;;;;;;;22.33;13.33;;;;;;;1.19;45.46;98874.97;10443914;28;20260;-36
2024/01/15 06:37:25;;;;;;;22.57;14.20;;;;;;;0.28;47.21;98952.63;10451384;28;20472;-34
2024/01/15 06:42:27;;;;;;;20.70;12.20;;;;;;;0.73;47.31;98779.19;10434795;28;20236;-36
2024/01/15 06:47:29;;;;;;;21.97;13.23;;;;;;;1.39;46.41;98676.19;10442677;28;20651;-38
2024/01/15 06:52:30;;;;;;;17.77;11.73;;;;;;;1.03;46.57;98776.28;10436827;28;20232;-36
2024/01/15 06:57:32;;;;;;;18.43;12.40;;;;;;;0.92;46.22;98844.16;10456541;28;20303;-37
2024/01/15 07:02:34;;;;;;;17.40;10.47;;;;;;;1.08;46.26;98817.16;10448767;28;20236;-35
2024/01/15 07:07:36;;;;;;;21.47;13.53;;;;;;;1.63;46.12;98658.09;10448912;28;20410;-37
2024/01/15 07:12:38;;;;;;;20.37;11.83;;;;;;;1.94;45.16;98679.53;10447712;28;20319;-36
2024/01/15 07:17:39;;;;;;;20.33;12.47;;;;;;;1.32;45.07;98915.03;10445626;28;20648;-36
2024/01/15 07:22:41;;;;;;;19.13;11.20;;;;;;;0.53;47.02;98897.75;10463057;28;20232;-36
2024/01/15 07:27:44;;;;;;;21.27;13.70;;;;;;;0.73;46.27;98981.97;10453978;28;20302;-38
2024/01/15 07:32:46;;;;;;;19.90;12.87;;;;;;;0.75;46.31;98930.84;10445576;28;20637;-35
2024/01/15 07:37:48;;;;;;;23.37;13.23;;;;;;;0.81;47.22;98801.19;10468396;28;20858;-36
2024/01/15 07:42:50;;;;;;;20.13;12.67;;;;;;;1.54;46.09;98689.66;10458394;28;20405;-35
2024/01/15 07:47:52;;;;;;;20.73;12.70;;;;;;;1.69;46.23;98683.81;10449852;28;20228;-34
2024/01/15 07:52:54;;;;;;;16.40;10.23;;;;;;;1.11;46.46;98870.41;10454370;28;20264;-35
2024/01/15 07:57:58;;;;;;;19.80;10.70;;;;;;;1.40;46.65;98761.38;10456244;28;21914;-36
2024/01/15 08:03:15;;;;;;;17.63;10.50;;;;;;;2.11;45.61;98664.63;10456337;28;20235;-35
2024/01/15 08:08:18;;;;;;;22.00;12.47;;;;;;;2.33;45.27;98632.41;10454618;28;20224;-35
2024/01/15 08:13:20;;;;;;;18.63;12.07;;;;;;;1.76;45.83;98756.94;10443935;28;20232;-38
2024/01/15 08:18:22;;;;;;;16.40;11.03;;;;;;;1.97;45.02;98784.78;10460563;28;20624;-36
2024/01/15 08:23:24;;;;;;;15.97;9.63;;;;;;;1.59;45.89;98758.59;10455987;28;20232;-36
2024/01/15 08:28:26;;;;;;;18.23;11.07;;;;;;;1.13;47.33;98697.16;10454818;28;20865;-35
2024/01/15 08:33:28;;;;;;;18.97;12.07;;;;;;;0.89;47.66;98755.69;10442203;28;20264;-35
2024/01/15 08:38:29;;;;;;;17.97;12.03;;;;;;;1.87;46.47;98628.41;10455031;28;20322;-35
2024/01/15 08:43:31;;;;;;;19.80;12.17;;;;;;;1.91;46.64;98611.25;10453574;28;20239;-35
2024/01/15 08:48:33;;;;;;;19.07;12.63;;;;;;;0.90;48.29;98686.25;10451249;28;20253;-36
2024/01/15 08:53:35;;;;;;;25.30;15.67;;;;;;;2.67;45.30;98556.72;10453658;28;20351;-35
2024/01/15 08:58:37;;;;;;;27.20;15.47;;;;;;;1.79;46.81;98652.91;10455604;28;20294;-35
2024/01/15 09:03:39;;;;;;;25.10;15.00;;;;;;;1.71;46.75;98671.31;10441372;28;20705;-36
2024/01/15 09:08:41;;;;;;;22.90;15.57;;;;;;;2.28;46.26;98581.06;10446602;28;20326;-35
2024/01/15 09:13:43;;;;;;;24.17;15.13;;;;;;;2.70;45.52;98633.00;10441766;28;20237;-35
2024/01/15 09:18:46;;;;;;;24.90;15.20;;;;;;;2.30;45.67;98721.69;10454857;28;20339;-34
2024/01/15 09:23:48;;;;;;;27.33;16.20;;;;;;;3.18;44.35;98691.47;10441544;28;20236;-35
2024/01/15 09:28:51;;;;;;;23.70;15.93;;;;;;;3.78;43.26;98664.69;10452551;28;20239;-37
2024/01/15 09:33:56;;;;;;;25.77;15.70;;;;;;;4.26;42.91;98662.09;10442468;28;20261;-35
2024/01/15 09:38:57;;;;;;;26.33;14.80;;;;;;;4.03;43.68;98627.56;10440216;28;20298;-36
2024/01/15 09:43:59;;;;;;;22.60;14.43;;;;;;;2.98;44.80;98837.13;10440090;28;20705;-35
2024/01/15 09:49:01;;;;;;;23.03;14.10;;;;;;;3.47;44.27;98720.91;10439376;28;20617;-35
2024/01/15 09:54:04;;;;;;;21.63;14.17;;;;;;;3.53;43.71;98719.44;10442545;28;20252;-36
2024/01/15 09:59:06;;;;;;;21.13;13.87;;;;;;;3.18;44.97;98673.78;10444502;28;20252;-36
2024/01/15 10:04:08;;;;;;;24.00;13.97;;;;;;;2.25;45.29;98935.13;10435743;28;20229;-35
2024/01/15 10:09:14;;;;;;;21.30;13.97;;;;;;;2.89;45.62;98741.09;10450045;28;20619;-35
2024/01/15 10:14:16;;;;;;;19.33;12.43;;;;;;;2.70;46.77;98590.75;10450187;28;20243;-36
2024/01/15 10:19:17;;;;;;;21.50;13.17;;;;;;;2.99;46.31;98667.00;10439039;28;20199;-37
2024/01/15 10:24:19;;;;;;;21.00;12.73;;;;;;;2.13;48.72;98633.63;10439089;28;20228;-36
2024/01/15 10:29:21;;;;;;;23.83;14.63;;;;;;;2.17;48.88;98654.28;10433521;28;20263;-36
2024/01/15 10:34:23;;;;;;;20.07;12.80;;;;;;;2.85;48.54;98557.41;10479647;22;20235;-35
2024/01/15 10:39:25;;;;;;;17.70;11.63;;;;;;;1.90;48.55;98865.53;10432325;28;20689;-36
2024/01/15 10:44:27;;;;;;;24.17;14.27;;;;;;;2.13;50.50;98591.41;10449049;28;20277;-36
2024/01/15 10:49:30;;;;;;;23.70;13.97;;;;;;;2.19;49.52;98663.88;10465216;28;20258;-36
2024/01/15 10:54:37;;;;;;;19.47;11.03;;;;;;;1.06;51.74;98783.88;10470627;28;20258;-36
2024/01/15 10:59:39;;;;;;;24.00;14.23;;;;;;;2.01;50.47;98662.09;10466130;28;20289;-36
2024/01/15 11:06:22;;;;;;;17.37;12.07;;;;;;;1.77;52.31;98454.41;10552897;27;20307;-66
2024/01/15 11:11:26;;;;;;;18.27;11.20;;;;;;;1.08;53.32;98580.03;10476469;28;20228;-64
2024/01/15 11:16:56;;;;;;;25.87;13.57;;;;;;;1.15;52.62;98587.19;10456522;28;20223;-65
2024/01/15 11:21:57;;;;;;;19.13;12.23;;;;;;;0.55;54.17;98531.66;10468672;28;20672;-65
2024/01/15 11:26:59;;;;;;;23.77;14.70;;;;;;;2.43;51.15;98396.44;10453287;28;20573;-65
2024/01/15 11:32:04;;;;;;;15.63;11.20;;;;;;;1.08;53.14;98609.00;10368802;28;20606;-65
2024/01/15 11:37:06;;;;;;;22.43;12.80;;;;;;;2.01;52.26;98421.16;10391342;28;20239;-66
2024/01/15 11:42:10;;;;;;;20.43;12.50;;;;;;;1.84;52.43;98486.25;10429063;28;20228;-66
2024/01/15 11:47:13;;;;;;;23.00;12.53;;;;;;;2.11;51.75;98478.09;10402674;28;20232;-64
2024/01/15 11:52:18;;;;;;;19.73;12.93;;;;;;;2.48;51.17;98421.34;10434282;28;20235;-65
2024/01/15 11:57:32;;;;;;;18.20;12.17;;;;;;;2.17;50.58;98635.81;10446513;28;20230;-65
2024/01/15 12:02:34;;;;;;;16.80;11.17;;;;;;;2.06;52.56;98493.56;10456457;28;20325;-65
2024/01/15 12:07:36;;;;;;;15.20;10.40;;;;;;;1.80;52.83;98534.03;10450295;28;20237;-66
2024/01/15 12:12:59;;;;;;;19.33;11.10;;;;;;;2.05;52.35;98565.00;10450737;28;20294;-65
2024/01/15 12:18:02;;;;;;;16.63;11.50;;;;;;;2.44;50.86;98662.97;10399069;28;20234;-65
2024/01/15 12:23:08;;;;;;;13.90;10.40;;;;;;;2.35;50.86;98654.22;10406516;28;20248;-65
2024/01/15 12:28:11;;;;;;;12.63;9.57;;;;;;;2.19;52.14;98601.34;10418982;28;20262;-64
2024/01/15 12:33:12;;;;;;;15.33;10.53;;;;;;;2.84;51.03;98483.63;10407338;28;20582;-65
2024/01/15 12:38:14;;;;;;;15.97;9.97;;;;;;;2.27;52.00;98600.56;10403542;28;20202;-65
2024/01/15 12:43:17;;;;;;;12.63;8.73;;;;;;;3.07;51.04;98491.69;10392764;28;20892;-64
2024/01/15 12:48:19;;;;;;;13.57;9.10;;;;;;;2.97;51.53;98513.00;10404431;28;20789;-65
2024/01/15 12:53:21;;;;;;;13.13;8.97;;;;;;;1.69;51.85;98813.91;10403342;28;20241;-65
2024/01/15 12:58:23;;;;;;;14.70;8.90;;;;;;;3.29;50.49;98503.41;10383719;28;20266;-65
2024/01/15 13:03:24;;;;;;;11.30;8.37;;;;;;;2.00;52.74;98683.41;10371262;28;20291;-65
2024/01/15 13:08:28;;;;;;;11.93;8.27;;;;;;;2.49;51.20;98671.25;10413226;28;20241;-65
2024/01/15 13:13:31;;;;;;;13.93;9.07;;;;;;;2.28;52.31;98655.84;10418530;28;20244;-65
2024/01/15 13:18:32;;;;;;;13.67;8.77;;;;;;;2.80;51.38;98559.72;10413169;28;20244;-66
2024/01/15 13:23:34;;;;;;;11.63;8.47;;;;;;;2.44;52.16;98668.25;10408319;28;20243;-65
2024/01/15 13:28:36;;;;;;;13.50;9.50;;;;;;;2.75;51.20;98649.22;10407206;28;20259;-65
2024/01/15 13:33:39;;;;;;;10.97;8.20;;;;;;;3.09;50.21;98650.94;10413935;28;20252;-66
2024/01/15 13:38:45;;;;;;;10.70;8.10;;;;;;;3.58;49.39;98602.53;10413691;28;20328;-65
2024/01/15 13:43:49;;;;;;;12.13;8.53;;;;;;;2.30;51.28;98806.97;10416953;28;20774;-65
2024/01/15 13:48:51;;;;;;;13.90;9.50;;;;;;;2.69;50.90;98753.72;10417290;28;20307;-65
2024/01/15 13:53:52;;;;;;;10.40;8.80;;;;;;;2.82;50.96;98700.44;10417383;28;20528;-65
2024/01/15 13:58:54;;;;;;;8.90;7.70;;;;;;;1.52;52.24;98909.63;10415206;28;20313;-65
2024/01/15 14:03:56;;;;;;;10.73;8.00;;;;;;;2.03;52.07;98799.16;10384917;28;20622;-65
2024/01/15 14:08:57;;;;;;;10.07;8.67;;;;;;;2.28;50.96;98847.69;10369290;28;20234;-67
2024/01/15 14:13:59;;;;;;;11.90;8.87;;;;;;;3.19;50.13;98637.59;10371430;28;20242;-66
2024/01/15 14:19:02;;;;;;;13.83;9.40;;;;;;;2.36;51.20;98766.75;10378517;28;20231;-65
2024/01/15 14:24:04;;;;;;;11.30;8.27;;;;;;;2.32;50.84;98777.78;10377018;28;20246;-65
2024/01/15 14:29:07;;;;;;;12.43;9.00;;;;;;;2.28;50.39;98847.69;10368148;28;20246;-65
2024/01/15 14:34:09;;;;;;;12.87;9.40;;;;;;;2.48;50.13;98772.56;10377826;28;20241;-64
2024/01/15 14:39:10;;;;;;;13.87;10.00;;;;;;;2.86;49.43;98703.59;10364507;28;20221;-66
2024/01/15 14:44:12;;;;;;;12.10;8.57;;;;;;;3.34;48.72;98658.91;10374666;28;20233;-64
2024/01/15 14:49:14;;;;;;;13.17;9.13;;;;;;;2.94;48.58;98843.72;10377012;28;20243;-64
2024/01/15 14:54:16;;;;;;;11.07;8.30;;;;;;;3.18;47.40;98882.66;10372664;28;20618;-64
2024/01/15 15:05:18;;;;;;;11.93;9.30;;;;;;;1.91;50.60;98815.25;10438279;28;20804;-66
2024/01/15 15:10:19;;;;;;;10.43;8.00;;;;;;;2.52;49.83;98741.44;10380051;28;20703;-64
2024/01/15 15:15:21;;;;;;;12.87;8.77;;;;;;;1.67;50.69;98822.94;10386121;28;20328;-66
2024/01/15 15:20:25;;;;;;;11.10;9.50;;;;;;;2.21;49.76;98805.25;10381587;28;20242;-65
2024/01/15 15:25:27;;;;;;;10.70;8.23;;;;;;;1.83;50.88;98770.34;10385363;28;20236;-65
2024/01/15 15:30:28;;;;;;;12.80;9.27;;;;;;;1.87;49.89;98897.50;10382315;28;20240;-64
2024/01/15 15:35:30;;;;;;;11.20;8.67;;;;;;;2.45;49.77;98695.50;10378473;28;20243;-64
2024/01/15 15:40:32;;;;;;;12.37;9.80;;;;;;;2.42;49.55;98753.94;10382618;28;20761;-66
2024/01/15 15:45:34;;;;;;;10.80;7.63;;;;;;;2.19;49.19;98823.06;10387185;28;20245;-65
2024/01/15 15:50:35;;;;;;;10.80;7.90;;;;;;;2.34;49.15;98778.44;10380160;28;20743;-64
2024/01/15 15:55:39;;;;;;;9.73;8.10;;;;;;;1.52;49.42;98934.22;10384679;28;20265;-65
2024/01/15 16:00:40;;;;;;;9.73;7.80;;;;;;;1.00;50.13;99040.06;10382316;28;20258;-66
2024/01/15 16:05:42;;;;;;;10.67;8.20;;;;;;;2.19;48.95;98812.50;10385414;28;20732;-66
2024/01/15 16:10:55;;;;;;;8.70;7.00;;;;;;;1.92;49.35;98816.09;10378086;28;20397;-71
2024/01/15 16:15:57;;;;;;;10.30;8.97;;;;;;;2.51;48.76;98731.84;10363419;28;20232;-64
2024/01/15 16:21:18;;;;;;;10.50;6.83;;;;;;;1.47;49.47;98981.25;10386229;22;20707;-34
2024/01/15 16:26:40;;;;;;;12.00;7.30;;;;;;;2.45;48.12;98844.22;10469190;28;20596;-33
2024/01/15 16:31:43;;;;;;;10.07;7.20;;;;;;;1.88;49.20;98928.19;10461861;28;20598;-35
2024/01/15 16:36:45;;;;;;;9.50;7.53;;;;;;;2.74;48.11;98795.53;10473318;22;20242;-70
2024/01/15 16:41:47;;;;;;;8.00;6.77;;;;;;;2.05;48.52;98940.56;10436122;28;20751;-70
2024/01/15 16:46:49;;;;;;;12.33;7.90;;;;;;;2.73;47.62;98833.47;10431837;28;20285;-71
2024/01/15 16:51:51;;;;;;;9.77;7.33;;;;;;;3.00;47.24;98826.38;10435397;28;20331;-73
2024/01/15 16:56:52;;;;;;;10.27;7.77;;;;;;;1.97;47.98;99044.22;10438904;28;20230;-71
2024/01/15 17:01:54;;;;;;;11.33;7.20;;;;;;;2.12;47.29;99083.31;10427042;28;20234;-71
2024/01/15 17:06:56;;;;;;;11.40;8.70;;;;;;;1.48;48.75;99056.78;10435845;28;20237;-71
2024/01/15 17:11:57;;;;;;;10.23;7.87;;;;;;;1.92;46.81;99059.66;10434427;28;20322;-71
2024/01/15 17:16:59;;;;;;;9.93;7.10;;;;;;;1.69;47.46;99072.41;10429457;28;20659;-71
2024/01/15 17:22:01;;;;;;;10.37;7.70;;;;;;;1.60;47.70;99045.06;10427191;28;20255;-70
2024/01/15 17:27:03;;;;;;;10.20;7.47;;;;;;;2.01;47.23;98960.28;10429357;28;20322;-69
2024/01/15 17:32:04;;;;;;;8.73;6.70;;;;;;;1.79;47.07;99022.22;10427834;28;20336;-71
2024/01/15 17:37:06;;;;;;;9.63;7.27;;;;;;;1.49;47.35;99074.25;10430251;28;20336;-70
2024/01/15 17:42:09;;;;;;;11.43;7.00;;;;;;;2.32;45.81;99007.50;10429331;28;20661;-71
2024/01/15 17:47:10;;;;;;;9.90;7.13;;;;;;;1.85;46.81;99090.25;10432849;28;20244;-71
2024/01/15 17:52:12;;;;;;;10.63;7.37;;;;;;;2.24;46.04;99057.56;10429647;28;20229;-71
2024/01/15 17:57:14;;;;;;;10.53;7.50;;;;;;;2.06;46.91;99023.19;10396876;28;20230;-73
2024/01/15 18:02:15;;;;;;;11.63;7.80;;;;;;;2.63;46.31;98956.91;10397656;28;20250;-72
2024/01/15 18:07:19;;;;;;;11.30;7.87;;;;;;;1.15;47.76;99239.91;10455322;28;20255;-72
2024/01/15 18:12:21;;;;;;;7.80;6.30;;;;;;;1.14;48.59;99123.13;10460816;28;20416;-73
2024/01/15 18:17:23;;;;;;;7.37;6.17;;;;;;;2.04;46.49;99085.88;10462797;28;20262;-73
2024/01/15 18:22:25;;;;;;;8.70;6.97;;;;;;;1.25;48.27;99093.13;10463887;28;20228;-72
2024/01/15 18:27:28;;;;;;;9.73;7.37;;;;;;;1.49;47.65;99111.19;10465295;28;20255;-70
2024/01/15 18:32:29;;;;;;;7.90;6.37;;;;;;;2.39;45.92;99042.88;10462510;28;20224;-70
2024/01/15 18:37:32;;;;;;;10.30;7.17;;;;;;;1.23;47.21;99272.50;10459220;28;20233;-72
2024/01/15 18:42:33;;;;;;;8.70;6.70;;;;;;;1.82;46.87;99172.31;10464108;28;20286;-72
2024/01/15 18:47:36;;;;;;;12.20;8.33;;;;;;;2.71;45.18;99095.19;10457996;28;20228;-72
2024/01/15 18:52:38;;;;;;;12.73;8.13;;;;;;;1.98;46.15;99164.66;10460181;28;20331;-72
2024/01/15 18:57:43;;;;;;;10.87;7.27;;;;;;;0.89;47.68;99308.09;10462458;28;20268;-70
2024/01/15 19:02:45;;;;;;;17.20;10.10;;;;;;;2.62;45.60;99042.41;10468334;28;20235;-72
2024/01/15 19:07:46;;;;;;;10.53;7.77;;;;;;;2.19;45.65;99152.22;10463884;28;20803;-71
2024/01/15 19:12:48;;;;;;;10.47;7.07;;;;;;;1.49;46.47;99274.69;10468069;28;20259;-72
2024/01/15 19:17:50;;;;;;;12.67;7.33;;;;;;;1.60;46.37;99269.25;10455937;28;20682;-67
2024/01/15 19:22:52;;;;;;;13.10;8.73;;;;;;;1.64;45.91;99259.28;10460117;28;20716;-70
2024/01/15 19:27:54;;;;;;;12.13;8.00;;;;;;;2.12;45.37;99205.56;10454902;28;20243;-73
2024/01/15 19:32:56;;;;;;;9.80;7.73;;;;;;;2.01;45.39;99216.28;10463542;28;20228;-69
2024/01/15 19:37:58;;;;;;;9.13;6.83;;;;;;;1.47;46.35;99199.28;10457655;28;20278;-70
2024/01/15 19:43:01;;;;;;;9.70;7.47;;;;;;;1.18;45.96;99332.69;10464948;28;20593;-70
2024/01/15 19:48:03;;;;;;;9.70;7.50;;;;;;;1.82;45.60;99155.66;10464426;28;20205;-73
2024/01/15 19:53:05;;;;;;;8.27;7.00;;;;;;;1.72;45.37;99213.72;10468371;28;20232;-73
2024/01/15 19:58:07;;;;;;;7.77;6.90;;;;;;;1.61;45.82;99207.63;10466572;28;20555;-70
2024/01/15 20:03:09;;;;;;;9.07;6.90;;;;;;;0.83;46.96;99299.75;10473576;28;20323;-70
2024/01/15 20:08:10;;;;;;;8.93;5.97;;;;;;;1.62;45.75;99205.81;10460415;28;20681;-71
2024/01/15 20:13:12;;;;;;;11.90;7.90;;;;;;;1.27;46.05;99272.25;10467135;28;20237;-70
2024/01/15 20:18:14;;;;;;;9.50;7.20;;;;;;;1.90;45.29;99163.69;10465244;28;20305;-70
2024/01/15 20:23:17;;;;;;;11.73;7.03;;;;;;;1.01;46.14;99350.00;10461140;28;20741;-67
2024/01/15 20:28:20;;;;;;;9.03;6.57;;;;;;;1.71;46.27;99172.47;10456165;28;20566;-69
2024/01/15 20:33:22;;;;;;;9.00;7.10;;;;;;;1.14;45.60;99370.84;10473843;28;20244;-68
2024/01/15 20:38:24;;;;;;;9.47;6.93;;;;;;;1.52;44.55;99350.03;10463421;28;20232;-70
2024/01/15 20:43:25;;;;;;;10.30;8.27;;;;;;;2.14;44.19;99194.88;10465498;28;20407;-70
2024/01/15 20:48:28;;;;;;;9.87;7.73;;;;;;;2.25;45.03;99090.88;10460585;28;20230;-71
2024/01/15 20:53:29;;;;;;;7.77;6.93;;;;;;;0.75;45.21;99504.16;10470269;28;20315;-70
2024/01/15 20:58:31;;;;;;;10.87;8.47;;;;;;;1.50;44.98;99300.06;10461447;28;20238;-69
2024/01/15 21:03:34;;;;;;;11.63;7.60;;;;;;;1.43;45.62;99278.69;10463645;28;20264;-70
2024/01/15 21:08:36;;;;;;;11.30;8.60;;;;;;;1.06;45.68;99358.31;10467385;28;20427;-74
2024/01/15 21:13:38;;;;;;;11.97;8.03;;;;;;;2.35;44.50;99111.00;10469732;28;20255;-72
2024/01/15 21:18:40;;;;;;;11.60;6.87;;;;;;;2.04;44.07;99282.00;10454172;28;20240;-72
2024/01/15 21:23:42;;;;;;;10.37;7.50;;;;;;;2.39;43.80;99233.00;10468628;28;20437;-70
2024/01/15 21:28:44;;;;;;;8.07;6.83;;;;;;;2.12;44.84;99171.25;10463356;28;20319;-72
2024/01/15 21:33:45;;;;;;;10.60;8.13;;;;;;;2.41;44.33;99159.75;10467503;28;20445;-69
2024/01/15 21:38:47;;;;;;;9.60;6.83;;;;;;;2.68;43.51;99224.94;10462677;28;20714;-72
2024/01/15 21:43:49;;;;;;;8.63;7.13;;;;;;;1.83;44.99;99312.97;10468019;28;20239;-72
2024/01/15 21:48:51;;;;;;;12.10;8.73;;;;;;;1.77;44.79;99314.38;10462130;28;20231;-71
2024/01/15 21:53:52;;;;;;;9.87;7.10;;;;;;;1.41;45.21;99388.72;10463677;28;20224;-70
2024/01/15 21:58:54;;;;;;;9.00;6.47;;;;;;;1.32;45.37;99410.63;10457393;28;20227;-71
2024/01/15 22:03:56;;;;;;;8.20;6.83;;;;;;;1.00;45.91;99402.81;10465633;28;20243;-71
2024/01/15 22:08:57;;;;;;;9.47;6.87;;;;;;;1.52;45.07;99327.16;10459064;28;20231;-71
2024/01/15 22:13:59;;;;;;;8.53;7.20;;;;;;;0.88;45.77;99423.16;10458450;28;20711;-71
2024/01/15 22:19:01;;;;;;;10.70;6.67;;;;;;;-0.38;46.51;99678.84;10461724;28;20235;-71
2024/01/15 22:24:04;;;;;;;11.00;7.73;;;;;;;0.96;46.18;99299.50;10458794;28;20382;-73
2024/01/15 22:29:06;;;;;;;7.80;6.77;;;;;;;1.26;45.79;99231.88;10463000;28;20241;-73
2024/01/15 22:34:07;;;;;;;11.17;7.30;;;;;;;0.22;46.86;99447.91;10464331;28;20242;-73
2024/01/15 22:39:09;;;;;;;9.07;7.37;;;;;;;1.49;45.19;99358.19;10454731;28;20312;-73
2024/01/15 22:44:11;;;;;;;8.00;6.80;;;;;;;1.75;44.35;99358.53;10468867;28;20233;-72
2024/01/15 22:49:13;;;;;;;8.03;6.10;;;;;;;0.78;46.26;99383.59;10456585;28;20323;-73
2024/01/15 22:54:14;;;;;;;7.20;6.33;;;;;;;1.32;45.50;99364.97;10453058;28;20236;-73
2024/01/15 22:59:18;;;;;;;7.97;6.50;;;;;;;1.45;45.30;99327.81;10453756;28;20305;-73
2024/01/15 23:04:23;;;;;;;8.20;6.40;;;;;;;2.13;44.04;99296.16;10461345;28;20236;-73
2024/01/15 23:09:25;;;;;;;8.37;6.37;;;;;;;0.83;46.61;99264.63;10449025;28;20438;-73
2024/01/15 23:14:27;;;;;;;8.23;5.50;;;;;;;-0.10;47.18;99413.69;10461346;28;20237;-72
2024/01/15 23:19:28;;;;;;;6.90;5.60;;;;;;;-0.23;48.46;99252.59;10455175;28;20247;-73
2024/01/15 23:24:30;;;;;;;8.67;5.03;;;;;;;-0.85;49.37;99352.16;10465324;28;20251;-72
2024/01/15 23:29:32;;;;;;;7.83;5.33;;;;;;;-0.43;48.47;99313.75;10465765;28;20732;-73